sensor_id;sensor_type;location;lat;lon;timestamp;P1;durP1;ratioP1;P2;durP2;ratioP2
76714;SDS011;65644;44.990;20.288;2024-02-23T00:01:08;13.95;;;10.00;;
76714;SDS011;65644;44.990;20.288;2024-02-23T00:03:36;14.50;;;8.63;;
76714;SDS011;65644;44.990;20.288;2024-02-23T00:06:02;13.57;;;8.70;;
76714;SDS011;65644;44.990;20.288;2024-02-23T00:08:28;12.25;;;8.10;;
76714;SDS011;65644;44.990;20.288;2024-02-23T00:10:54;12.68;;;8.20;;
76714;SDS011;65644;44.990;20.288;2024-02-23T00:13:20;13.23;;;7.65;;
76714;SDS011;65644;44.990;20.288;2024-02-23T00:15:47;15.00;;;8.00;;
76714;SDS011;65644;44.990;20.288;2024-02-23T00:18:13;12.63;;;8.35;;
76714;SDS011;65644;44.990;20.288;2024-02-23T00:20:41;12.90;;;8.75;;
76714;SDS011;65644;44.990;20.288;2024-02-23T00:23:09;13.85;;;7.65;;
76714;SDS011;65644;44.990;20.288;2024-02-23T00:25:55;12.93;;;8.60;;
76714;SDS011;65644;44.990;20.288;2024-02-23T00:28:22;15.27;;;8.35;;
76714;SDS011;65644;44.990;20.288;2024-02-23T00:30:48;15.95;;;9.45;;
76714;SDS011;65644;44.990;20.288;2024-02-23T00:33:14;13.43;;;8.60;;
76714;SDS011;65644;44.990;20.288;2024-02-23T00:35:40;11.90;;;7.72;;
76714;SDS011;65644;44.990;20.288;2024-02-23T00:38:06;11.55;;;7.47;;
76714;SDS011;65644;44.990;20.288;2024-02-23T00:40:32;12.18;;;8.35;;
76714;SDS011;65644;44.990;20.288;2024-02-23T00:42:59;13.90;;;7.43;;
76714;SDS011;65644;44.990;20.288;2024-02-23T00:45:28;13.90;;;7.70;;
76714;SDS011;65644;44.990;20.288;2024-02-23T00:47:54;9.65;;;6.97;;
76714;SDS011;65644;44.990;20.288;2024-02-23T00:50:22;12.60;;;7.13;;
76714;SDS011;65644;44.990;20.288;2024-02-23T00:52:51;10.15;;;7.07;;
76714;SDS011;65644;44.990;20.288;2024-02-23T00:55:17;13.95;;;7.43;;
76714;SDS011;65644;44.990;20.288;2024-02-23T00:57:43;8.65;;;6.28;;
76714;SDS011;65644;44.990;20.288;2024-02-23T01:00:10;9.98;;;7.03;;
76714;SDS011;65644;44.990;20.288;2024-02-23T01:02:37;10.40;;;6.53;;
76714;SDS011;65644;44.990;20.288;2024-02-23T01:05:04;9.27;;;6.10;;
76714;SDS011;65644;44.990;20.288;2024-02-23T01:07:30;9.27;;;5.80;;
76714;SDS011;65644;44.990;20.288;2024-02-23T01:09:56;9.70;;;5.40;;
76714;SDS011;65644;44.990;20.288;2024-02-23T01:12:23;12.80;;;5.85;;
76714;SDS011;65644;44.990;20.288;2024-02-23T01:14:49;7.75;;;5.57;;
76714;SDS011;65644;44.990;20.288;2024-02-23T01:17:15;8.57;;;5.78;;
76714;SDS011;65644;44.990;20.288;2024-02-23T01:19:43;7.22;;;5.18;;
76714;SDS011;65644;44.990;20.288;2024-02-23T01:22:09;9.68;;;5.85;;
76714;SDS011;65644;44.990;20.288;2024-02-23T01:24:35;7.15;;;5.03;;
76714;SDS011;65644;44.990;20.288;2024-02-23T01:27:02;7.15;;;4.93;;
76714;SDS011;65644;44.990;20.288;2024-02-23T01:29:28;7.57;;;5.30;;
76714;SDS011;65644;44.990;20.288;2024-02-23T01:31:54;6.38;;;5.15;;
76714;SDS011;65644;44.990;20.288;2024-02-23T01:34:20;6.50;;;4.80;;
76714;SDS011;65644;44.990;20.288;2024-02-23T01:36:47;7.15;;;5.40;;
76714;SDS011;65644;44.990;20.288;2024-02-23T01:39:13;8.38;;;4.72;;
76714;SDS011;65644;44.990;20.288;2024-02-23T01:41:40;6.68;;;5.05;;
76714;SDS011;65644;44.990;20.288;2024-02-23T01:44:07;7.30;;;4.82;;
76714;SDS011;65644;44.990;20.288;2024-02-23T01:46:35;6.35;;;4.60;;
76714;SDS011;65644;44.990;20.288;2024-02-23T01:49:02;6.82;;;4.88;;
76714;SDS011;65644;44.990;20.288;2024-02-23T01:51:28;7.30;;;4.65;;
76714;SDS011;65644;44.990;20.288;2024-02-23T01:53:55;8.07;;;4.90;;
76714;SDS011;65644;44.990;20.288;2024-02-23T01:56:21;6.57;;;5.07;;
76714;SDS011;65644;44.990;20.288;2024-02-23T01:58:47;8.60;;;4.95;;
76714;SDS011;65644;44.990;20.288;2024-02-23T02:01:14;7.18;;;4.93;;
76714;SDS011;65644;44.990;20.288;2024-02-23T02:03:40;6.28;;;4.78;;
76714;SDS011;65644;44.990;20.288;2024-02-23T02:06:06;7.38;;;5.40;;
76714;SDS011;65644;44.990;20.288;2024-02-23T02:08:33;5.97;;;3.97;;
76714;SDS011;65644;44.990;20.288;2024-02-23T02:11:00;6.30;;;4.20;;
76714;SDS011;65644;44.990;20.288;2024-02-23T02:13:27;7.30;;;4.85;;
76714;SDS011;65644;44.990;20.288;2024-02-23T02:15:54;5.32;;;4.20;;
76714;SDS011;65644;44.990;20.288;2024-02-23T02:18:20;7.50;;;4.18;;
76714;SDS011;65644;44.990;20.288;2024-02-23T02:20:50;5.95;;;3.88;;
76714;SDS011;65644;44.990;20.288;2024-02-23T02:23:17;5.78;;;4.38;;
76714;SDS011;65644;44.990;20.288;2024-02-23T02:25:44;6.18;;;4.10;;
76714;SDS011;65644;44.990;20.288;2024-02-23T02:28:10;7.93;;;4.55;;
76714;SDS011;65644;44.990;20.288;2024-02-23T02:30:36;6.13;;;3.95;;
76714;SDS011;65644;44.990;20.288;2024-02-23T02:33:02;8.40;;;4.55;;
76714;SDS011;65644;44.990;20.288;2024-02-23T02:35:28;5.22;;;4.00;;
76714;SDS011;65644;44.990;20.288;2024-02-23T02:37:54;5.75;;;4.07;;
76714;SDS011;65644;44.990;20.288;2024-02-23T02:40:20;7.07;;;4.15;;
76714;SDS011;65644;44.990;20.288;2024-02-23T02:42:46;5.20;;;3.67;;
76714;SDS011;65644;44.990;20.288;2024-02-23T02:45:12;5.47;;;4.22;;
76714;SDS011;65644;44.990;20.288;2024-02-23T02:47:38;5.97;;;4.10;;
76714;SDS011;65644;44.990;20.288;2024-02-23T02:50:04;6.25;;;3.55;;
76714;SDS011;65644;44.990;20.288;2024-02-23T02:52:31;6.13;;;3.72;;
76714;SDS011;65644;44.990;20.288;2024-02-23T02:54:57;5.03;;;3.88;;
76714;SDS011;65644;44.990;20.288;2024-02-23T02:57:23;4.50;;;3.50;;
76714;SDS011;65644;44.990;20.288;2024-02-23T02:59:50;4.75;;;3.65;;
76714;SDS011;65644;44.990;20.288;2024-02-23T03:02:16;4.28;;;3.50;;
76714;SDS011;65644;44.990;20.288;2024-02-23T03:04:48;5.18;;;4.00;;
76714;SDS011;65644;44.990;20.288;2024-02-23T03:07:15;4.13;;;3.42;;
76714;SDS011;65644;44.990;20.288;2024-02-23T03:09:41;6.45;;;3.83;;
76714;SDS011;65644;44.990;20.288;2024-02-23T03:12:08;5.35;;;3.80;;
76714;SDS011;65644;44.990;20.288;2024-02-23T03:14:34;6.95;;;3.92;;
76714;SDS011;65644;44.990;20.288;2024-02-23T03:17:01;5.03;;;3.17;;
76714;SDS011;65644;44.990;20.288;2024-02-23T03:19:27;4.35;;;3.58;;
76714;SDS011;65644;44.990;20.288;2024-02-23T03:21:53;5.63;;;3.95;;
76714;SDS011;65644;44.990;20.288;2024-02-23T03:24:19;4.75;;;3.47;;
76714;SDS011;65644;44.990;20.288;2024-02-23T03:26:45;4.30;;;3.60;;
76714;SDS011;65644;44.990;20.288;2024-02-23T03:29:11;5.13;;;3.83;;
76714;SDS011;65644;44.990;20.288;2024-02-23T03:31:37;5.43;;;3.67;;
76714;SDS011;65644;44.990;20.288;2024-02-23T03:34:03;4.32;;;3.60;;
76714;SDS011;65644;44.990;20.288;2024-02-23T03:36:29;5.07;;;3.90;;
76714;SDS011;65644;44.990;20.288;2024-02-23T03:38:55;5.93;;;4.25;;
76714;SDS011;65644;44.990;20.288;2024-02-23T03:41:21;7.05;;;4.15;;
76714;SDS011;65644;44.990;20.288;2024-02-23T03:43:47;5.22;;;4.25;;
76714;SDS011;65644;44.990;20.288;2024-02-23T03:46:13;4.22;;;3.75;;
76714;SDS011;65644;44.990;20.288;2024-02-23T03:48:41;5.55;;;4.32;;
76714;SDS011;65644;44.990;20.288;2024-02-23T03:51:08;7.68;;;4.40;;
76714;SDS011;65644;44.990;20.288;2024-02-23T03:53:34;6.65;;;4.78;;
76714;SDS011;65644;44.990;20.288;2024-02-23T03:56:00;9.32;;;5.80;;
76714;SDS011;65644;44.990;20.288;2024-02-23T03:58:26;9.98;;;5.75;;
76714;SDS011;65644;44.990;20.288;2024-02-23T04:00:53;6.90;;;5.03;;
76714;SDS011;65644;44.990;20.288;2024-02-23T04:03:19;5.78;;;4.57;;
76714;SDS011;65644;44.990;20.288;2024-02-23T04:05:45;6.32;;;4.90;;
76714;SDS011;65644;44.990;20.288;2024-02-23T04:08:11;7.22;;;5.10;;
76714;SDS011;65644;44.990;20.288;2024-02-23T04:10:37;5.70;;;4.95;;
76714;SDS011;65644;44.990;20.288;2024-02-23T04:13:03;8.82;;;5.85;;
76714;SDS011;65644;44.990;20.288;2024-02-23T04:15:29;6.28;;;4.80;;
76714;SDS011;65644;44.990;20.288;2024-02-23T04:17:55;13.52;;;7.15;;
76714;SDS011;65644;44.990;20.288;2024-02-23T04:20:21;17.40;;;8.38;;
76714;SDS011;65644;44.990;20.288;2024-02-23T04:22:47;44.28;;;18.08;;
76714;SDS011;65644;44.990;20.288;2024-02-23T04:25:13;14.73;;;7.47;;
76714;SDS011;65644;44.990;20.288;2024-02-23T04:27:39;25.75;;;12.65;;
76714;SDS011;65644;44.990;20.288;2024-02-23T04:30:06;33.25;;;15.52;;
76714;SDS011;65644;44.990;20.288;2024-02-23T04:32:32;35.80;;;16.15;;
76714;SDS011;65644;44.990;20.288;2024-02-23T04:34:58;47.58;;;23.77;;
76714;SDS011;65644;44.990;20.288;2024-02-23T04:37:24;26.80;;;14.20;;
76714;SDS011;65644;44.990;20.288;2024-02-23T04:39:50;55.58;;;24.35;;
76714;SDS011;65644;44.990;20.288;2024-02-23T04:42:16;7.55;;;5.57;;
76714;SDS011;65644;44.990;20.288;2024-02-23T04:44:42;7.38;;;4.88;;
76714;SDS011;65644;44.990;20.288;2024-02-23T04:47:09;8.68;;;5.15;;
76714;SDS011;65644;44.990;20.288;2024-02-23T04:49:35;5.78;;;5.18;;
76714;SDS011;65644;44.990;20.288;2024-02-23T04:52:01;7.05;;;5.13;;
76714;SDS011;65644;44.990;20.288;2024-02-23T04:54:27;9.00;;;4.85;;
76714;SDS011;65644;44.990;20.288;2024-02-23T04:56:53;5.78;;;5.18;;
76714;SDS011;65644;44.990;20.288;2024-02-23T04:59:19;9.52;;;5.10;;
76714;SDS011;65644;44.990;20.288;2024-02-23T05:01:45;6.45;;;4.88;;
76714;SDS011;65644;44.990;20.288;2024-02-23T05:04:12;6.32;;;4.43;;
76714;SDS011;65644;44.990;20.288;2024-02-23T05:06:38;7.50;;;4.85;;
76714;SDS011;65644;44.990;20.288;2024-02-23T05:09:04;8.07;;;5.70;;
76714;SDS011;65644;44.990;20.288;2024-02-23T05:11:34;5.18;;;4.68;;
76714;SDS011;65644;44.990;20.288;2024-02-23T05:14:00;5.30;;;4.35;;
76714;SDS011;65644;44.990;20.288;2024-02-23T05:16:26;5.70;;;4.88;;
76714;SDS011;65644;44.990;20.288;2024-02-23T05:18:52;5.28;;;4.78;;
76714;SDS011;65644;44.990;20.288;2024-02-23T05:21:18;7.18;;;5.53;;
76714;SDS011;65644;44.990;20.288;2024-02-23T05:23:45;4.85;;;4.32;;
76714;SDS011;65644;44.990;20.288;2024-02-23T05:26:11;6.28;;;5.22;;
76714;SDS011;65644;44.990;20.288;2024-02-23T05:28:37;6.13;;;4.50;;
76714;SDS011;65644;44.990;20.288;2024-02-23T05:31:03;7.60;;;4.55;;
76714;SDS011;65644;44.990;20.288;2024-02-23T05:33:30;9.63;;;5.45;;
76714;SDS011;65644;44.990;20.288;2024-02-23T05:35:56;7.40;;;5.32;;
76714;SDS011;65644;44.990;20.288;2024-02-23T05:38:22;5.90;;;5.30;;
76714;SDS011;65644;44.990;20.288;2024-02-23T05:40:48;6.35;;;4.63;;
76714;SDS011;65644;44.990;20.288;2024-02-23T05:43:14;7.55;;;5.13;;
76714;SDS011;65644;44.990;20.288;2024-02-23T05:45:40;9.65;;;5.40;;
76714;SDS011;65644;44.990;20.288;2024-02-23T05:48:06;7.38;;;5.40;;
76714;SDS011;65644;44.990;20.288;2024-02-23T05:50:32;9.52;;;5.47;;
76714;SDS011;65644;44.990;20.288;2024-02-23T05:52:58;9.70;;;6.07;;
76714;SDS011;65644;44.990;20.288;2024-02-23T05:55:24;6.20;;;5.45;;
76714;SDS011;65644;44.990;20.288;2024-02-23T05:57:50;6.10;;;4.93;;
76714;SDS011;65644;44.990;20.288;2024-02-23T06:00:17;7.07;;;4.80;;
76714;SDS011;65644;44.990;20.288;2024-02-23T06:02:46;7.22;;;5.15;;
76714;SDS011;65644;44.990;20.288;2024-02-23T06:05:13;7.07;;;5.20;;
76714;SDS011;65644;44.990;20.288;2024-02-23T06:07:39;11.02;;;5.53;;
76714;SDS011;65644;44.990;20.288;2024-02-23T06:10:05;7.40;;;5.55;;
76714;SDS011;65644;44.990;20.288;2024-02-23T06:12:31;6.93;;;5.32;;
76714;SDS011;65644;44.990;20.288;2024-02-23T06:14:57;6.20;;;5.00;;
76714;SDS011;65644;44.990;20.288;2024-02-23T06:17:24;5.88;;;4.32;;
76714;SDS011;65644;44.990;20.288;2024-02-23T06:19:50;5.90;;;4.80;;
76714;SDS011;65644;44.990;20.288;2024-02-23T06:22:18;6.75;;;5.03;;
76714;SDS011;65644;44.990;20.288;2024-02-23T06:24:47;5.78;;;4.95;;
76714;SDS011;65644;44.990;20.288;2024-02-23T06:27:13;6.57;;;4.70;;
76714;SDS011;65644;44.990;20.288;2024-02-23T06:29:39;6.78;;;5.13;;
76714;SDS011;65644;44.990;20.288;2024-02-23T06:32:05;7.10;;;5.68;;
76714;SDS011;65644;44.990;20.288;2024-02-23T06:34:32;7.63;;;5.00;;
76714;SDS011;65644;44.990;20.288;2024-02-23T06:36:58;6.15;;;4.97;;
76714;SDS011;65644;44.990;20.288;2024-02-23T06:39:25;7.07;;;5.15;;
76714;SDS011;65644;44.990;20.288;2024-02-23T06:41:51;10.25;;;5.03;;
76714;SDS011;65644;44.990;20.288;2024-02-23T06:44:17;7.28;;;5.22;;
76714;SDS011;65644;44.990;20.288;2024-02-23T06:46:43;8.38;;;5.10;;
76714;SDS011;65644;44.990;20.288;2024-02-23T06:49:09;7.50;;;5.50;;
76714;SDS011;65644;44.990;20.288;2024-02-23T06:51:35;5.78;;;5.00;;
76714;SDS011;65644;44.990;20.288;2024-02-23T06:54:03;8.82;;;5.68;;
76714;SDS011;65644;44.990;20.288;2024-02-23T06:56:29;9.13;;;6.32;;
76714;SDS011;65644;44.990;20.288;2024-02-23T06:58:55;8.35;;;5.40;;
76714;SDS011;65644;44.990;20.288;2024-02-23T07:01:21;6.25;;;5.30;;
76714;SDS011;65644;44.990;20.288;2024-02-23T07:03:47;10.90;;;6.38;;
76714;SDS011;65644;44.990;20.288;2024-02-23T07:06:16;8.43;;;6.18;;
76714;SDS011;65644;44.990;20.288;2024-02-23T07:08:43;7.97;;;5.93;;
76714;SDS011;65644;44.990;20.288;2024-02-23T07:11:10;11.40;;;6.05;;
76714;SDS011;65644;44.990;20.288;2024-02-23T07:13:36;10.73;;;6.13;;
76714;SDS011;65644;44.990;20.288;2024-02-23T07:16:02;9.93;;;6.63;;
76714;SDS011;65644;44.990;20.288;2024-02-23T07:18:28;9.07;;;6.00;;
76714;SDS011;65644;44.990;20.288;2024-02-23T07:20:55;8.02;;;5.70;;
76714;SDS011;65644;44.990;20.288;2024-02-23T07:23:21;8.48;;;6.38;;
76714;SDS011;65644;44.990;20.288;2024-02-23T07:25:47;8.75;;;5.80;;
76714;SDS011;65644;44.990;20.288;2024-02-23T07:28:15;7.82;;;5.97;;
76714;SDS011;65644;44.990;20.288;2024-02-23T07:30:44;8.20;;;5.90;;
76714;SDS011;65644;44.990;20.288;2024-02-23T07:33:11;5.78;;;5.00;;
76714;SDS011;65644;44.990;20.288;2024-02-23T07:35:37;7.47;;;5.30;;
76714;SDS011;65644;44.990;20.288;2024-02-23T07:38:03;7.03;;;6.13;;
76714;SDS011;65644;44.990;20.288;2024-02-23T07:40:29;6.82;;;5.80;;
76714;SDS011;65644;44.990;20.288;2024-02-23T07:42:57;9.68;;;6.47;;
76714;SDS011;65644;44.990;20.288;2024-02-23T07:45:23;7.40;;;6.43;;
76714;SDS011;65644;44.990;20.288;2024-02-23T07:47:49;7.10;;;6.38;;
76714;SDS011;65644;44.990;20.288;2024-02-23T07:50:15;5.90;;;5.30;;
76714;SDS011;65644;44.990;20.288;2024-02-23T07:52:43;8.95;;;4.78;;
76714;SDS011;65644;44.990;20.288;2024-02-23T07:55:09;5.05;;;4.53;;
76714;SDS011;65644;44.990;20.288;2024-02-23T07:57:35;6.82;;;4.60;;
76714;SDS011;65644;44.990;20.288;2024-02-23T08:00:03;5.82;;;3.92;;
76714;SDS011;65644;44.990;20.288;2024-02-23T08:02:29;4.60;;;3.78;;
76714;SDS011;65644;44.990;20.288;2024-02-23T08:04:55;9.45;;;4.57;;
76714;SDS011;65644;44.990;20.288;2024-02-23T08:07:22;7.07;;;4.50;;
76714;SDS011;65644;44.990;20.288;2024-02-23T08:09:48;6.10;;;4.57;;
76714;SDS011;65644;44.990;20.288;2024-02-23T08:12:14;9.25;;;4.72;;
76714;SDS011;65644;44.990;20.288;2024-02-23T08:14:41;6.97;;;4.70;;
76714;SDS011;65644;44.990;20.288;2024-02-23T08:17:09;7.40;;;4.72;;
76714;SDS011;65644;44.990;20.288;2024-02-23T08:19:35;7.03;;;4.78;;
76714;SDS011;65644;44.990;20.288;2024-02-23T08:22:01;5.60;;;4.43;;
76714;SDS011;65644;44.990;20.288;2024-02-23T08:24:27;6.57;;;4.38;;
76714;SDS011;65644;44.990;20.288;2024-02-23T08:26:53;6.18;;;4.60;;
76714;SDS011;65644;44.990;20.288;2024-02-23T08:29:19;9.05;;;4.57;;
76714;SDS011;65644;44.990;20.288;2024-02-23T08:31:45;4.40;;;3.90;;
76714;SDS011;65644;44.990;20.288;2024-02-23T08:34:11;7.03;;;3.97;;
76714;SDS011;65644;44.990;20.288;2024-02-23T08:36:37;5.50;;;3.97;;
76714;SDS011;65644;44.990;20.288;2024-02-23T08:39:03;5.05;;;4.47;;
76714;SDS011;65644;44.990;20.288;2024-02-23T08:41:30;4.13;;;3.45;;
76714;SDS011;65644;44.990;20.288;2024-02-23T08:43:56;3.92;;;3.50;;
76714;SDS011;65644;44.990;20.288;2024-02-23T08:46:22;5.80;;;4.32;;
76714;SDS011;65644;44.990;20.288;2024-02-23T08:48:48;5.63;;;3.58;;
76714;SDS011;65644;44.990;20.288;2024-02-23T08:51:14;4.05;;;3.63;;
76714;SDS011;65644;44.990;20.288;2024-02-23T08:53:40;4.53;;;3.90;;
76714;SDS011;65644;44.990;20.288;2024-02-23T08:56:06;4.47;;;3.70;;
76714;SDS011;65644;44.990;20.288;2024-02-23T08:58:33;6.40;;;4.22;;
76714;SDS011;65644;44.990;20.288;2024-02-23T09:00:59;6.13;;;3.95;;
76714;SDS011;65644;44.990;20.288;2024-02-23T09:03:25;5.22;;;4.13;;
76714;SDS011;65644;44.990;20.288;2024-02-23T09:05:51;3.85;;;3.35;;
76714;SDS011;65644;44.990;20.288;2024-02-23T09:08:17;5.22;;;3.92;;
76714;SDS011;65644;44.990;20.288;2024-02-23T09:10:43;6.10;;;4.25;;
76714;SDS011;65644;44.990;20.288;2024-02-23T09:13:10;7.05;;;4.22;;
76714;SDS011;65644;44.990;20.288;2024-02-23T09:15:37;10.13;;;4.63;;
76714;SDS011;65644;44.990;20.288;2024-02-23T09:18:03;5.63;;;3.80;;
76714;SDS011;65644;44.990;20.288;2024-02-23T09:20:29;5.55;;;4.40;;
76714;SDS011;65644;44.990;20.288;2024-02-23T09:22:55;4.10;;;3.67;;
76714;SDS011;65644;44.990;20.288;2024-02-23T09:25:22;5.22;;;3.97;;
76714;SDS011;65644;44.990;20.288;2024-02-23T09:27:48;5.20;;;3.40;;
76714;SDS011;65644;44.990;20.288;2024-02-23T09:30:14;8.40;;;4.07;;
76714;SDS011;65644;44.990;20.288;2024-02-23T09:32:40;9.35;;;4.60;;
76714;SDS011;65644;44.990;20.288;2024-02-23T09:35:06;16.25;;;7.40;;
76714;SDS011;65644;44.990;20.288;2024-02-23T09:37:32;6.43;;;4.53;;
76714;SDS011;65644;44.990;20.288;2024-02-23T09:39:59;17.10;;;8.50;;
76714;SDS011;65644;44.990;20.288;2024-02-23T09:42:25;18.60;;;11.27;;
76714;SDS011;65644;44.990;20.288;2024-02-23T09:44:58;6.90;;;4.63;;
76714;SDS011;65644;44.990;20.288;2024-02-23T09:47:25;10.15;;;5.72;;
76714;SDS011;65644;44.990;20.288;2024-02-23T09:49:52;4.40;;;4.00;;
76714;SDS011;65644;44.990;20.288;2024-02-23T09:52:18;6.97;;;5.13;;
76714;SDS011;65644;44.990;20.288;2024-02-23T09:54:45;5.53;;;4.22;;
76714;SDS011;65644;44.990;20.288;2024-02-23T09:57:11;6.00;;;4.22;;
76714;SDS011;65644;44.990;20.288;2024-02-23T09:59:37;16.00;;;9.02;;
76714;SDS011;65644;44.990;20.288;2024-02-23T10:02:05;5.72;;;4.15;;
76714;SDS011;65644;44.990;20.288;2024-02-23T10:04:33;4.53;;;3.15;;
76714;SDS011;65644;44.990;20.288;2024-02-23T10:06:59;8.35;;;5.70;;
76714;SDS011;65644;44.990;20.288;2024-02-23T10:09:25;5.05;;;3.47;;
76714;SDS011;65644;44.990;20.288;2024-02-23T10:11:55;7.75;;;4.80;;
76714;SDS011;65644;44.990;20.288;2024-02-23T10:14:21;8.68;;;4.80;;
76714;SDS011;65644;44.990;20.288;2024-02-23T10:16:47;6.13;;;4.65;;
76714;SDS011;65644;44.990;20.288;2024-02-23T10:19:18;5.40;;;3.10;;
76714;SDS011;65644;44.990;20.288;2024-02-23T10:21:45;2.80;;;2.60;;
76714;SDS011;65644;44.990;20.288;2024-02-23T10:24:12;5.05;;;3.22;;
76714;SDS011;65644;44.990;20.288;2024-02-23T10:26:38;6.40;;;3.72;;
76714;SDS011;65644;44.990;20.288;2024-02-23T10:29:04;7.05;;;4.25;;
76714;SDS011;65644;44.990;20.288;2024-02-23T10:31:34;7.38;;;5.13;;
76714;SDS011;65644;44.990;20.288;2024-02-23T10:34:08;7.07;;;5.47;;
76714;SDS011;65644;44.990;20.288;2024-02-23T10:36:37;5.72;;;4.30;;
76714;SDS011;65644;44.990;20.288;2024-02-23T10:39:04;6.82;;;6.18;;
76714;SDS011;65644;44.990;20.288;2024-02-23T10:41:33;5.55;;;4.55;;
76714;SDS011;65644;44.990;20.288;2024-02-23T10:44:00;4.78;;;3.45;;
76714;SDS011;65644;44.990;20.288;2024-02-23T10:46:28;6.80;;;4.25;;
76714;SDS011;65644;44.990;20.288;2024-02-23T10:48:55;4.80;;;3.58;;
76714;SDS011;65644;44.990;20.288;2024-02-23T10:51:22;5.38;;;3.53;;
76714;SDS011;65644;44.990;20.288;2024-02-23T10:53:49;4.70;;;3.67;;
76714;SDS011;65644;44.990;20.288;2024-02-23T10:56:15;4.15;;;2.90;;
76714;SDS011;65644;44.990;20.288;2024-02-23T10:58:42;4.28;;;3.17;;
76714;SDS011;65644;44.990;20.288;2024-02-23T11:01:08;4.03;;;3.20;;
76714;SDS011;65644;44.990;20.288;2024-02-23T11:03:35;4.00;;;3.60;;
76714;SDS011;65644;44.990;20.288;2024-02-23T11:06:02;6.45;;;4.50;;
76714;SDS011;65644;44.990;20.288;2024-02-23T11:08:28;6.65;;;3.75;;
76714;SDS011;65644;44.990;20.288;2024-02-23T11:10:55;5.18;;;3.35;;
76714;SDS011;65644;44.990;20.288;2024-02-23T11:13:30;6.13;;;3.17;;
76714;SDS011;65644;44.990;20.288;2024-02-23T11:16:03;6.00;;;3.40;;
76714;SDS011;65644;44.990;20.288;2024-02-23T11:18:30;3.90;;;3.55;;
76714;SDS011;65644;44.990;20.288;2024-02-23T11:20:59;5.30;;;3.42;;
76714;SDS011;65644;44.990;20.288;2024-02-23T11:23:25;4.97;;;3.33;;
76714;SDS011;65644;44.990;20.288;2024-02-23T11:28:30;6.00;;;2.80;;
76714;SDS011;65644;44.990;20.288;2024-02-23T11:30:57;8.50;;;3.47;;
76714;SDS011;65644;44.990;20.288;2024-02-23T11:33:27;5.57;;;3.15;;
76714;SDS011;65644;44.990;20.288;2024-02-23T11:36:04;6.30;;;3.17;;
76714;SDS011;65644;44.990;20.288;2024-02-23T11:38:31;6.47;;;3.22;;
76714;SDS011;65644;44.990;20.288;2024-02-23T11:40:59;4.55;;;2.92;;
76714;SDS011;65644;44.990;20.288;2024-02-23T11:43:26;4.18;;;2.65;;
76714;SDS011;65644;44.990;20.288;2024-02-23T11:45:53;3.30;;;2.72;;
76714;SDS011;65644;44.990;20.288;2024-02-23T11:48:19;4.65;;;3.10;;
76714;SDS011;65644;44.990;20.288;2024-02-23T11:50:47;6.18;;;2.78;;
76714;SDS011;65644;44.990;20.288;2024-02-23T11:53:14;5.53;;;2.80;;
76714;SDS011;65644;44.990;20.288;2024-02-23T11:55:40;4.25;;;2.80;;
76714;SDS011;65644;44.990;20.288;2024-02-23T11:58:06;3.97;;;2.95;;
76714;SDS011;65644;44.990;20.288;2024-02-23T12:00:32;4.82;;;2.80;;
76714;SDS011;65644;44.990;20.288;2024-02-23T12:03:00;4.25;;;2.55;;
76714;SDS011;65644;44.990;20.288;2024-02-23T12:05:26;4.15;;;2.72;;
76714;SDS011;65644;44.990;20.288;2024-02-23T12:07:53;5.93;;;3.38;;
76714;SDS011;65644;44.990;20.288;2024-02-23T12:10:19;5.13;;;3.50;;
76714;SDS011;65644;44.990;20.288;2024-02-23T12:12:46;4.95;;;2.80;;
76714;SDS011;65644;44.990;20.288;2024-02-23T12:15:12;4.68;;;2.67;;
76714;SDS011;65644;44.990;20.288;2024-02-23T12:17:46;4.88;;;2.55;;
76714;SDS011;65644;44.990;20.288;2024-02-23T12:20:12;5.05;;;2.80;;
76714;SDS011;65644;44.990;20.288;2024-02-23T12:22:40;6.38;;;2.42;;
76714;SDS011;65644;44.990;20.288;2024-02-23T12:25:06;3.50;;;2.67;;
76714;SDS011;65644;44.990;20.288;2024-02-23T12:27:32;3.45;;;1.75;;
76714;SDS011;65644;44.990;20.288;2024-02-23T12:29:59;4.32;;;2.20;;
76714;SDS011;65644;44.990;20.288;2024-02-23T12:32:25;3.47;;;2.15;;
76714;SDS011;65644;44.990;20.288;2024-02-23T12:34:52;4.22;;;2.60;;
76714;SDS011;65644;44.990;20.288;2024-02-23T12:37:18;5.03;;;2.95;;
76714;SDS011;65644;44.990;20.288;2024-02-23T12:39:45;5.20;;;2.38;;
76714;SDS011;65644;44.990;20.288;2024-02-23T12:42:11;4.72;;;2.67;;
76714;SDS011;65644;44.990;20.288;2024-02-23T12:44:37;4.22;;;2.58;;
76714;SDS011;65644;44.990;20.288;2024-02-23T12:47:03;4.53;;;3.03;;
76714;SDS011;65644;44.990;20.288;2024-02-23T12:49:29;4.82;;;3.25;;
76714;SDS011;65644;44.990;20.288;2024-02-23T12:51:56;17.00;;;7.15;;
76714;SDS011;65644;44.990;20.288;2024-02-23T12:54:22;9.48;;;4.25;;
76714;SDS011;65644;44.990;20.288;2024-02-23T12:56:48;2.97;;;2.63;;
76714;SDS011;65644;44.990;20.288;2024-02-23T12:59:15;3.08;;;2.63;;
76714;SDS011;65644;44.990;20.288;2024-02-23T13:01:41;3.92;;;2.40;;
76714;SDS011;65644;44.990;20.288;2024-02-23T13:04:07;5.78;;;2.75;;
76714;SDS011;65644;44.990;20.288;2024-02-23T13:06:38;12.25;;;5.70;;
76714;SDS011;65644;44.990;20.288;2024-02-23T13:09:04;8.35;;;2.63;;
76714;SDS011;65644;44.990;20.288;2024-02-23T13:11:33;5.30;;;3.10;;
76714;SDS011;65644;44.990;20.288;2024-02-23T13:13:59;2.97;;;2.47;;
76714;SDS011;65644;44.990;20.288;2024-02-23T13:16:25;5.57;;;3.20;;
76714;SDS011;65644;44.990;20.288;2024-02-23T13:18:52;6.45;;;3.58;;
76714;SDS011;65644;44.990;20.288;2024-02-23T13:21:18;4.30;;;2.55;;
76714;SDS011;65644;44.990;20.288;2024-02-23T13:23:44;3.47;;;3.17;;
76714;SDS011;65644;44.990;20.288;2024-02-23T13:26:10;3.05;;;2.50;;
76714;SDS011;65644;44.990;20.288;2024-02-23T13:28:39;5.32;;;3.38;;
76714;SDS011;65644;44.990;20.288;2024-02-23T13:31:05;13.40;;;3.15;;
76714;SDS011;65644;44.990;20.288;2024-02-23T13:33:32;4.15;;;2.22;;
76714;SDS011;65644;44.990;20.288;2024-02-23T13:35:58;5.13;;;2.35;;
76714;SDS011;65644;44.990;20.288;2024-02-23T13:38:24;2.78;;;1.67;;
76714;SDS011;65644;44.990;20.288;2024-02-23T13:40:50;4.80;;;2.00;;
76714;SDS011;65644;44.990;20.288;2024-02-23T13:43:16;2.75;;;2.13;;
76714;SDS011;65644;44.990;20.288;2024-02-23T13:45:49;3.58;;;2.13;;
76714;SDS011;65644;44.990;20.288;2024-02-23T13:48:18;4.70;;;2.28;;
76714;SDS011;65644;44.990;20.288;2024-02-23T13:50:48;4.20;;;2.33;;
76714;SDS011;65644;44.990;20.288;2024-02-23T13:53:14;4.60;;;2.03;;
76714;SDS011;65644;44.990;20.288;2024-02-23T13:55:40;4.80;;;1.77;;
76714;SDS011;65644;44.990;20.288;2024-02-23T13:58:09;5.30;;;2.22;;
76714;SDS011;65644;44.990;20.288;2024-02-23T14:00:37;5.47;;;2.20;;
76714;SDS011;65644;44.990;20.288;2024-02-23T14:03:03;6.75;;;3.85;;
76714;SDS011;65644;44.990;20.288;2024-02-23T14:05:29;4.65;;;2.17;;
76714;SDS011;65644;44.990;20.288;2024-02-23T14:07:55;4.22;;;1.85;;
76714;SDS011;65644;44.990;20.288;2024-02-23T14:10:21;3.10;;;2.80;;
76714;SDS011;65644;44.990;20.288;2024-02-23T14:12:48;4.22;;;2.83;;
76714;SDS011;65644;44.990;20.288;2024-02-23T14:15:15;5.78;;;2.85;;
76714;SDS011;65644;44.990;20.288;2024-02-23T14:17:42;4.43;;;3.90;;
76714;SDS011;65644;44.990;20.288;2024-02-23T14:20:08;3.88;;;3.00;;
76714;SDS011;65644;44.990;20.288;2024-02-23T14:22:34;3.75;;;2.10;;
76714;SDS011;65644;44.990;20.288;2024-02-23T14:25:01;4.97;;;2.25;;
76714;SDS011;65644;44.990;20.288;2024-02-23T14:27:27;4.68;;;2.47;;
76714;SDS011;65644;44.990;20.288;2024-02-23T14:29:53;7.07;;;2.53;;
76714;SDS011;65644;44.990;20.288;2024-02-23T14:32:19;3.78;;;1.77;;